sensor_id;sensor_type;location;lat;lon;timestamp;temperature;humidity
65995;HTU21D;52764;51.036;5.852;2022-11-11T00:01:00;12.30;72.78
65995;HTU21D;52764;51.036;5.852;2022-11-11T00:03:44;12.27;72.66
65995;HTU21D;52764;51.036;5.852;2022-11-11T00:06:28;12.20;72.35
65995;HTU21D;52764;51.036;5.852;2022-11-11T00:09:12;12.17;72.77
65995;HTU21D;52764;51.036;5.852;2022-11-11T00:11:57;12.14;72.89
65995;HTU21D;52764;51.036;5.852;2022-11-11T00:14:41;12.10;72.87
65995;HTU21D;52764;51.036;5.852;2022-11-11T00:17:25;12.05;73.03
65995;HTU21D;52764;51.036;5.852;2022-11-11T00:20:29;11.96;73.32
65995;HTU21D;52764;51.036;5.852;2022-11-11T00:23:33;11.97;73.24
65995;HTU21D;52764;51.036;5.852;2022-11-11T00:26:36;11.97;73.30
65995;HTU21D;52764;51.036;5.852;2022-11-11T00:29:20;11.93;73.34
65995;HTU21D;52764;51.036;5.852;2022-11-11T00:32:08;11.86;73.61
65995;HTU21D;52764;51.036;5.852;2022-11-11T00:35:10;11.77;73.90
65995;HTU21D;52764;51.036;5.852;2022-11-11T00:38:13;9.95;74.12
65995;HTU21D;52764;51.036;5.852;2022-11-11T00:41:22;11.71;74.09
65995;HTU21D;52764;51.036;5.852;2022-11-11T00:44:06;11.67;74.18
65995;HTU21D;52764;51.036;5.852;2022-11-11T00:46:50;11.63;74.19
65995;HTU21D;52764;51.036;5.852;2022-11-11T00:49:53;11.59;74.27
65995;HTU21D;52764;51.036;5.852;2022-11-11T00:52:56;11.56;74.22
65995;HTU21D;52764;51.036;5.852;2022-11-11T00:55:40;11.53;76.48
65995;HTU21D;52764;51.036;5.852;2022-11-11T00:58:24;11.52;74.37
65995;HTU21D;52764;51.036;5.852;2022-11-11T01:01:10;11.51;74.44
65995;HTU21D;52764;51.036;5.852;2022-11-11T01:03:54;11.48;74.53
65995;HTU21D;52764;51.036;5.852;2022-11-11T01:06:38;11.44;74.54
65995;HTU21D;52764;51.036;5.852;2022-11-11T01:09:22;11.44;74.62
65995;HTU21D;52764;51.036;5.852;2022-11-11T01:12:06;12.05;74.63
65995;HTU21D;52764;51.036;5.852;2022-11-11T01:14:50;11.42;74.70
65995;HTU21D;52764;51.036;5.852;2022-11-11T01:17:36;11.41;74.81
65995;HTU21D;52764;51.036;5.852;2022-11-11T01:20:20;11.39;74.97
65995;HTU21D;52764;51.036;5.852;2022-11-11T01:23:05;11.42;62.03
65995;HTU21D;52764;51.036;5.852;2022-11-11T01:25:49;11.45;74.69
65995;HTU21D;52764;51.036;5.852;2022-11-11T01:28:35;11.48;74.51
65995;HTU21D;52764;51.036;5.852;2022-11-11T01:31:22;11.44;74.58
65995;HTU21D;52764;51.036;5.852;2022-11-11T01:34:06;3.83;74.61
65995;HTU21D;52764;51.036;5.852;2022-11-11T01:36:50;11.42;74.59
65995;HTU21D;52764;51.036;5.852;2022-11-11T01:39:34;11.42;74.74
65995;HTU21D;52764;51.036;5.852;2022-11-11T01:42:18;-18.17;74.76
65995;HTU21D;52764;51.036;5.852;2022-11-11T01:48:47;11.43;77.24
65995;HTU21D;52764;51.036;5.852;2022-11-11T02:00:28;11.39;75.12
65995;HTU21D;52764;51.036;5.852;2022-11-11T02:03:13;11.28;75.46
65995;HTU21D;52764;51.036;5.852;2022-11-11T02:05:58;11.24;63.44
65995;HTU21D;52764;51.036;5.852;2022-11-11T02:08:44;11.29;75.35
65995;HTU21D;52764;51.036;5.852;2022-11-11T02:11:31;11.30;75.17
65995;HTU21D;52764;51.036;5.852;2022-11-11T02:14:42;11.29;75.06
65995;HTU21D;52764;51.036;5.852;2022-11-11T02:17:30;11.27;75.18
65995;HTU21D;52764;51.036;5.852;2022-11-11T02:20:20;11.25;75.24
65995;HTU21D;52764;51.036;5.852;2022-11-11T02:25:51;11.19;63.10
65995;HTU21D;52764;51.036;5.852;2022-11-11T02:28:36;11.20;75.41
65995;HTU21D;52764;51.036;5.852;2022-11-11T02:31:27;11.20;75.38
65995;HTU21D;52764;51.036;5.852;2022-11-11T02:34:12;11.17;75.33
65995;HTU21D;52764;51.036;5.852;2022-11-11T02:36:56;11.16;75.44
65995;HTU21D;52764;51.036;5.852;2022-11-11T02:39:45;11.14;75.38
65995;HTU21D;52764;51.036;5.852;2022-11-11T02:42:33;11.12;75.43
65995;HTU21D;52764;51.036;5.852;2022-11-11T02:45:19;11.11;75.47
65995;HTU21D;52764;51.036;5.852;2022-11-11T02:48:03;11.07;75.60
65995;HTU21D;52764;51.036;5.852;2022-11-11T02:50:48;11.05;79.29
65995;HTU21D;52764;51.036;5.852;2022-11-11T02:53:32;11.02;75.71
65995;HTU21D;52764;51.036;5.852;2022-11-11T02:56:16;11.01;75.76
65995;HTU21D;52764;51.036;5.852;2022-11-11T02:59:20;8.75;76.37
65995;HTU21D;52764;51.036;5.852;2022-11-11T03:02:06;10.87;76.41
65995;HTU21D;52764;51.036;5.852;2022-11-11T03:04:51;-19.35;76.56
65995;HTU21D;52764;51.036;5.852;2022-11-11T03:07:35;10.77;76.74
65995;HTU21D;52764;51.036;5.852;2022-11-11T03:10:19;10.79;76.69
65995;HTU21D;52764;51.036;5.852;2022-11-11T03:13:04;10.78;76.58
65995;HTU21D;52764;51.036;5.852;2022-11-11T03:15:48;10.71;65.43
65995;HTU21D;52764;51.036;5.852;2022-11-11T03:18:32;10.71;76.68
65995;HTU21D;52764;51.036;5.852;2022-11-11T03:21:16;2.40;76.60
65995;HTU21D;52764;51.036;5.852;2022-11-11T03:24:00;10.72;76.48
65995;HTU21D;52764;51.036;5.852;2022-11-11T03:26:44;13.40;76.77
65995;HTU21D;52764;51.036;5.852;2022-11-11T03:29:28;10.74;76.31
65995;HTU21D;52764;51.036;5.852;2022-11-11T03:32:12;10.75;76.16
65995;HTU21D;52764;51.036;5.852;2022-11-11T03:34:56;10.74;76.12
65995;HTU21D;52764;51.036;5.852;2022-11-11T03:37:40;10.71;76.20
65995;HTU21D;52764;51.036;5.852;2022-11-11T03:40:47;10.68;76.10
65995;HTU21D;52764;51.036;5.852;2022-11-11T03:43:33;10.71;75.87
65995;HTU21D;52764;51.036;5.852;2022-11-11T03:46:21;10.70;79.72
65995;HTU21D;52764;51.036;5.852;2022-11-11T03:49:05;10.64;75.93
65995;HTU21D;52764;51.036;5.852;2022-11-11T03:51:49;10.63;75.95
65995;HTU21D;52764;51.036;5.852;2022-11-11T03:54:33;10.62;75.79
65995;HTU21D;52764;51.036;5.852;2022-11-11T03:57:17;10.60;75.77
65995;HTU21D;52764;51.036;5.852;2022-11-11T04:00:20;10.57;75.91
65995;HTU21D;52764;51.036;5.852;2022-11-11T04:03:22;10.55;76.03
65995;HTU21D;52764;51.036;5.852;2022-11-11T04:06:25;10.54;75.99
65995;HTU21D;52764;51.036;5.852;2022-11-11T04:09:28;10.51;75.95
65995;HTU21D;52764;51.036;5.852;2022-11-11T04:12:34;10.49;75.69
65995;HTU21D;52764;51.036;5.852;2022-11-11T04:15:39;10.53;75.47
65995;HTU21D;52764;51.036;5.852;2022-11-11T04:18:42;10.57;75.35
65995;HTU21D;52764;51.036;5.852;2022-11-11T04:21:45;10.58;75.29
65995;HTU21D;52764;51.036;5.852;2022-11-11T04:24:30;10.58;75.29
65995;HTU21D;52764;51.036;5.852;2022-11-11T04:27:33;-19.76;75.38
65995;HTU21D;52764;51.036;5.852;2022-11-11T04:30:17;10.65;75.41
65995;HTU21D;52764;51.036;5.852;2022-11-11T04:33:01;10.67;75.34
65995;HTU21D;52764;51.036;5.852;2022-11-11T04:35:49;10.69;75.25
65995;HTU21D;52764;51.036;5.852;2022-11-11T04:38:33;-19.63;75.26
65995;HTU21D;52764;51.036;5.852;2022-11-11T04:41:36;10.70;75.08
65995;HTU21D;52764;51.036;5.852;2022-11-11T04:44:20;10.42;75.14
65995;HTU21D;52764;51.036;5.852;2022-11-11T04:47:23;10.56;75.25
65995;HTU21D;52764;51.036;5.852;2022-11-11T04:50:08;10.51;75.34
65995;HTU21D;52764;51.036;5.852;2022-11-11T04:52:53;10.48;79.82
65995;HTU21D;52764;51.036;5.852;2022-11-11T04:55:42;10.42;75.57
65995;HTU21D;52764;51.036;5.852;2022-11-11T04:58:45;10.51;75.41
65995;HTU21D;52764;51.036;5.852;2022-11-11T05:01:29;10.45;75.63
65995;HTU21D;52764;51.036;5.852;2022-11-11T05:04:32;10.41;75.73
65995;HTU21D;52764;51.036;5.852;2022-11-11T05:07:16;10.39;75.89
65995;HTU21D;52764;51.036;5.852;2022-11-11T05:10:19;10.37;76.02
65995;HTU21D;52764;51.036;5.852;2022-11-11T05:13:04;10.36;76.20
65995;HTU21D;52764;51.036;5.852;2022-11-11T05:16:19;10.43;75.92
65995;HTU21D;52764;51.036;5.852;2022-11-11T05:19:23;10.48;75.82
65995;HTU21D;52764;51.036;5.852;2022-11-11T05:22:32;10.53;75.78
65995;HTU21D;52764;51.036;5.852;2022-11-11T05:25:17;10.54;75.71
65995;HTU21D;52764;51.036;5.852;2022-11-11T05:28:12;10.56;75.66
65995;HTU21D;52764;51.036;5.852;2022-11-11T05:30:56;10.59;75.56
65995;HTU21D;52764;51.036;5.852;2022-11-11T05:33:40;10.60;75.35
65995;HTU21D;52764;51.036;5.852;2022-11-11T05:36:24;10.58;75.49
65995;HTU21D;52764;51.036;5.852;2022-11-11T05:39:08;10.59;75.48
65995;HTU21D;52764;51.036;5.852;2022-11-11T05:41:52;10.57;75.43
65995;HTU21D;52764;51.036;5.852;2022-11-11T05:44:36;10.57;75.33
65995;HTU21D;52764;51.036;5.852;2022-11-11T05:47:20;10.57;75.27
65995;HTU21D;52764;51.036;5.852;2022-11-11T05:50:05;10.60;75.19
65995;HTU21D;52764;51.036;5.852;2022-11-11T05:52:49;10.57;75.23
65995;HTU21D;52764;51.036;5.852;2022-11-11T05:55:34;-37.03;75.41
65995;HTU21D;52764;51.036;5.852;2022-11-11T05:58:18;10.50;75.56
65995;HTU21D;52764;51.036;5.852;2022-11-11T06:01:03;10.50;75.53
65995;HTU21D;52764;51.036;5.852;2022-11-11T06:03:47;10.49;75.47
65995;HTU21D;52764;51.036;5.852;2022-11-11T06:06:33;10.46;75.49
65995;HTU21D;52764;51.036;5.852;2022-11-11T06:09:18;10.44;75.58
65995;HTU21D;52764;51.036;5.852;2022-11-11T06:12:02;10.43;75.61
65995;HTU21D;52764;51.036;5.852;2022-11-11T06:14:47;12.76;71.50
65995;HTU21D;52764;51.036;5.852;2022-11-11T06:17:32;10.41;76.01
65995;HTU21D;52764;51.036;5.852;2022-11-11T06:20:17;10.43;75.96
65995;HTU21D;52764;51.036;5.852;2022-11-11T06:23:03;10.46;75.92
65995;HTU21D;52764;51.036;5.852;2022-11-11T06:25:49;10.48;75.90
65995;HTU21D;52764;51.036;5.852;2022-11-11T06:28:54;10.51;75.71
65995;HTU21D;52764;51.036;5.852;2022-11-11T06:31:38;1.99;75.57
65995;HTU21D;52764;51.036;5.852;2022-11-11T06:34:23;10.52;75.55
65995;HTU21D;52764;51.036;5.852;2022-11-11T06:37:07;10.54;75.47
65995;HTU21D;52764;51.036;5.852;2022-11-11T06:39:51;10.56;75.34
65995;HTU21D;52764;51.036;5.852;2022-11-11T06:42:35;10.56;75.25
65995;HTU21D;52764;51.036;5.852;2022-11-11T06:45:21;10.58;75.05
65995;HTU21D;52764;51.036;5.852;2022-11-11T06:48:06;10.59;74.82
65995;HTU21D;52764;51.036;5.852;2022-11-11T06:50:51;10.59;74.70
65995;HTU21D;52764;51.036;5.852;2022-11-11T06:53:36;10.63;74.62
65995;HTU21D;52764;51.036;5.852;2022-11-11T06:56:20;10.65;74.43
65995;HTU21D;52764;51.036;5.852;2022-11-11T06:59:04;2.31;74.56
65995;HTU21D;52764;51.036;5.852;2022-11-11T07:01:49;10.72;74.01
65995;HTU21D;52764;51.036;5.852;2022-11-11T07:04:34;10.73;73.84
65995;HTU21D;52764;51.036;5.852;2022-11-11T07:07:18;10.79;74.37
65995;HTU21D;52764;51.036;5.852;2022-11-11T07:10:04;10.82;73.48
65995;HTU21D;52764;51.036;5.852;2022-11-11T07:12:50;8.36;74.48
65995;HTU21D;52764;51.036;5.852;2022-11-11T07:15:35;10.93;73.17
65995;HTU21D;52764;51.036;5.852;2022-11-11T07:18:20;-19.07;72.99
65995;HTU21D;52764;51.036;5.852;2022-11-11T07:21:05;11.02;73.37
65995;HTU21D;52764;51.036;5.852;2022-11-11T07:23:49;-34.84;72.53
65995;HTU21D;52764;51.036;5.852;2022-11-11T07:26:34;3.15;72.54
65995;HTU21D;52764;51.036;5.852;2022-11-11T07:29:18;11.16;72.21
65995;HTU21D;52764;51.036;5.852;2022-11-11T07:32:02;9.82;71.85
65995;HTU21D;52764;51.036;5.852;2022-11-11T07:34:47;11.30;71.68
65995;HTU21D;52764;51.036;5.852;2022-11-11T07:37:35;11.42;71.32
65995;HTU21D;52764;51.036;5.852;2022-11-11T07:40:20;11.52;70.99
65995;HTU21D;52764;51.036;5.852;2022-11-11T07:43:04;11.62;70.63
65995;HTU21D;52764;51.036;5.852;2022-11-11T07:45:48;11.72;70.26
65995;HTU21D;52764;51.036;5.852;2022-11-11T07:48:32;11.81;69.99
65995;HTU21D;52764;51.036;5.852;2022-11-11T07:51:16;11.84;70.00
65995;HTU21D;52764;51.036;5.852;2022-11-11T07:54:00;11.84;70.16
65995;HTU21D;52764;51.036;5.852;2022-11-11T07:56:44;10.29;70.07
65995;HTU21D;52764;51.036;5.852;2022-11-11T07:59:28;12.01;69.93
65995;HTU21D;52764;51.036;5.852;2022-11-11T08:02:13;12.10;69.68
65995;HTU21D;52764;51.036;5.852;2022-11-11T08:04:58;12.17;69.46
65995;HTU21D;52764;51.036;5.852;2022-11-11T08:07:42;12.25;69.26
65995;HTU21D;52764;51.036;5.852;2022-11-11T08:10:26;-16.26;69.07
65995;HTU21D;52764;51.036;5.852;2022-11-11T08:13:11;-16.13;68.81
65995;HTU21D;52764;51.036;5.852;2022-11-11T08:16:14;12.51;68.36
65995;HTU21D;52764;51.036;5.852;2022-11-11T08:19:00;12.59;68.30
65995;HTU21D;52764;51.036;5.852;2022-11-11T08:21:44;12.67;67.86
65995;HTU21D;52764;51.036;5.852;2022-11-11T08:24:29;12.79;67.29
65995;HTU21D;52764;51.036;5.852;2022-11-11T08:27:13;12.88;66.76
65995;HTU21D;52764;51.036;5.852;2022-11-11T08:29:58;12.92;66.60
65995;HTU21D;52764;51.036;5.852;2022-11-11T08:32:42;13.00;66.76
65995;HTU21D;52764;51.036;5.852;2022-11-11T08:35:27;13.04;66.38
65995;HTU21D;52764;51.036;5.852;2022-11-11T08:38:12;13.10;66.11
65995;HTU21D;52764;51.036;5.852;2022-11-11T08:41:01;13.15;66.04
65995;HTU21D;52764;51.036;5.852;2022-11-11T08:43:51;13.22;65.91
65995;HTU21D;52764;51.036;5.852;2022-11-11T08:46:36;13.22;65.74
65995;HTU21D;52764;51.036;5.852;2022-11-11T08:49:20;6.86;65.24
65995;HTU21D;52764;51.036;5.852;2022-11-11T08:52:04;13.33;65.24
65995;HTU21D;52764;51.036;5.852;2022-11-11T08:54:48;13.40;64.92
65995;HTU21D;52764;51.036;5.852;2022-11-11T08:57:32;13.44;64.70
65995;HTU21D;52764;51.036;5.852;2022-11-11T09:00:17;13.49;56.89
65995;HTU21D;52764;51.036;5.852;2022-11-11T09:03:04;13.51;64.34
65995;HTU21D;52764;51.036;5.852;2022-11-11T09:05:49;13.51;71.81
65995;HTU21D;52764;51.036;5.852;2022-11-11T09:08:33;13.52;64.37
65995;HTU21D;52764;51.036;5.852;2022-11-11T09:11:17;13.56;64.30
65995;HTU21D;52764;51.036;5.852;2022-11-11T09:14:01;13.60;64.52
65995;HTU21D;52764;51.036;5.852;2022-11-11T09:16:46;13.58;64.33
65995;HTU21D;52764;51.036;5.852;2022-11-11T09:19:30;13.59;64.34
65995;HTU21D;52764;51.036;5.852;2022-11-11T09:22:14;13.61;64.40
65995;HTU21D;52764;51.036;5.852;2022-11-11T09:24:58;13.63;64.23
65995;HTU21D;52764;51.036;5.852;2022-11-11T09:27:42;13.90;64.14
65995;HTU21D;52764;51.036;5.852;2022-11-11T09:30:28;13.79;64.01
65995;HTU21D;52764;51.036;5.852;2022-11-11T09:33:12;13.95;63.56
65995;HTU21D;52764;51.036;5.852;2022-11-11T09:35:59;14.08;63.61
65995;HTU21D;52764;51.036;5.852;2022-11-11T09:38:43;14.18;63.18
65995;HTU21D;52764;51.036;5.852;2022-11-11T09:41:36;14.27;62.96
65995;HTU21D;52764;51.036;5.852;2022-11-11T09:47:29;9.84;62.37
65995;HTU21D;52764;51.036;5.852;2022-11-11T09:50:30;14.53;61.50
65995;HTU21D;52764;51.036;5.852;2022-11-11T09:53:28;14.58;66.87
65995;HTU21D;52764;51.036;5.852;2022-11-11T09:56:18;14.68;61.17
65995;HTU21D;52764;51.036;5.852;2022-11-11T09:59:14;14.75;61.03
65995;HTU21D;52764;51.036;5.852;2022-11-11T10:02:00;14.86;60.58
65995;HTU21D;52764;51.036;5.852;2022-11-11T10:07:42;13.75;59.75
65995;HTU21D;52764;51.036;5.852;2022-11-11T10:10:45;15.11;59.41
65995;HTU21D;52764;51.036;5.852;2022-11-11T10:13:31;14.67;59.26
65995;HTU21D;52764;51.036;5.852;2022-11-11T10:16:32;15.24;59.09
65995;HTU21D;52764;51.036;5.852;2022-11-11T10:19:29;15.31;58.99
65995;HTU21D;52764;51.036;5.852;2022-11-11T10:22:34;15.40;58.70
65995;HTU21D;52764;51.036;5.852;2022-11-11T10:25:24;15.45;58.22
65995;HTU21D;52764;51.036;5.852;2022-11-11T10:28:15;15.44;57.77
65995;HTU21D;52764;51.036;5.852;2022-11-11T10:31:03;-17.33;57.78
65995;HTU21D;52764;51.036;5.852;2022-11-11T10:34:08;15.45;57.35
65995;HTU21D;52764;51.036;5.852;2022-11-11T10:36:55;15.45;57.20
65995;HTU21D;52764;51.036;5.852;2022-11-11T10:42:36;15.49;56.89
65995;HTU21D;52764;51.036;5.852;2022-11-11T10:45:29;15.53;56.97
65995;HTU21D;52764;51.036;5.852;2022-11-11T10:48:23;15.48;56.82
65995;HTU21D;52764;51.036;5.852;2022-11-11T10:51:11;15.47;58.74
65995;HTU21D;52764;51.036;5.852;2022-11-11T10:54:08;15.49;58.00
65995;HTU21D;52764;51.036;5.852;2022-11-11T10:57:21;15.60;57.21
65995;HTU21D;52764;51.036;5.852;2022-11-11T11:00:08;15.71;56.52
65995;HTU21D;52764;51.036;5.852;2022-11-11T11:03:19;15.82;56.39
65995;HTU21D;52764;51.036;5.852;2022-11-11T11:06:33;15.83;56.40
65995;HTU21D;52764;51.036;5.852;2022-11-11T11:09:20;15.86;56.23
65995;HTU21D;52764;51.036;5.852;2022-11-11T11:12:19;15.93;56.59
65995;HTU21D;52764;51.036;5.852;2022-11-11T11:15:10;16.03;56.55
65995;HTU21D;52764;51.036;5.852;2022-11-11T11:18:05;16.12;56.40
65995;HTU21D;52764;51.036;5.852;2022-11-11T11:20:55;-8.67;56.18
65995;HTU21D;52764;51.036;5.852;2022-11-11T11:23:44;16.25;56.20
65995;HTU21D;52764;51.036;5.852;2022-11-11T11:26:43;16.28;56.12
65995;HTU21D;52764;51.036;5.852;2022-11-11T11:32:16;16.64;55.98
65995;HTU21D;52764;51.036;5.852;2022-11-11T11:35:00;16.56;55.66
65995;HTU21D;52764;51.036;5.852;2022-11-11T11:37:50;16.64;55.44
65995;HTU21D;52764;51.036;5.852;2022-11-11T11:40:49;17.20;55.29
65995;HTU21D;52764;51.036;5.852;2022-11-11T11:43:38;16.75;55.24
65995;HTU21D;52764;51.036;5.852;2022-11-11T11:46:26;16.76;55.45
65995;HTU21D;52764;51.036;5.852;2022-11-11T11:55:43;16.85;54.87
65995;HTU21D;52764;51.036;5.852;2022-11-11T12:05:28;16.88;55.27
65995;HTU21D;52764;51.036;5.852;2022-11-11T12:08:14;16.90;55.16
65995;HTU21D;52764;51.036;5.852;2022-11-11T12:11:20;16.96;55.26
65995;HTU21D;52764;51.036;5.852;2022-11-11T12:14:28;16.96;55.33
65995;HTU21D;52764;51.036;5.852;2022-11-11T12:17:42;17.00;55.58
65995;HTU21D;52764;51.036;5.852;2022-11-11T12:20:39;16.99;55.43
65995;HTU21D;52764;51.036;5.852;2022-11-11T12:23:58;16.90;55.72
65995;HTU21D;52764;51.036;5.852;2022-11-11T12:30:03;16.92;56.32
65995;HTU21D;52764;51.036;5.852;2022-11-11T12:45:22;-6.80;56.12
65995;HTU21D;52764;51.036;5.852;2022-11-11T13:00:19;17.53;56.12
65995;HTU21D;52764;51.036;5.852;2022-11-11T13:09:09;17.26;56.43
65995;HTU21D;52764;51.036;5.852;2022-11-11T13:12:16;15.53;56.52
65995;HTU21D;52764;51.036;5.852;2022-11-11T13:15:16;17.24;56.69
65995;HTU21D;52764;51.036;5.852;2022-11-11T13:18:01;17.20;56.72
65995;HTU21D;52764;51.036;5.852;2022-11-11T13:20:58;17.24;56.78
65995;HTU21D;52764;51.036;5.852;2022-11-11T13:23:44;17.22;56.77
65995;HTU21D;52764;51.036;5.852;2022-11-11T13:26:37;16.77;56.68
65995;HTU21D;52764;51.036;5.852;2022-11-11T13:35:35;17.28;56.60
65995;HTU21D;52764;51.036;5.852;2022-11-11T13:38:38;17.24;56.72
65995;HTU21D;52764;51.036;5.852;2022-11-11T13:41:50;17.29;56.53
65995;HTU21D;52764;51.036;5.852;2022-11-11T13:44:53;17.26;56.70
65995;HTU21D;52764;51.036;5.852;2022-11-11T13:47:44;15.42;56.81
65995;HTU21D;52764;51.036;5.852;2022-11-11T13:50:34;-6.59;59.05
65995;HTU21D;52764;51.036;5.852;2022-11-11T13:53:39;17.19;58.13
65995;HTU21D;52764;51.036;5.852;2022-11-11T13:56:44;17.15;57.34
65995;HTU21D;52764;51.036;5.852;2022-11-11T13:59:42;17.09;57.49
65995;HTU21D;52764;51.036;5.852;2022-11-11T14:02:34;17.06;57.67
65995;HTU21D;52764;51.036;5.852;2022-11-11T14:05:20;17.03;59.01
65995;HTU21D;52764;51.036;5.852;2022-11-11T14:08:06;16.99;57.88
65995;HTU21D;52764;51.036;5.852;2022-11-11T14:10:55;16.96;57.97
65995;HTU21D;52764;51.036;5.852;2022-11-11T14:13:41;16.93;58.08
65995;HTU21D;52764;51.036;5.852;2022-11-11T14:22:32;16.82;58.63
65995;HTU21D;52764;51.036;5.852;2022-11-11T14:25:24;17.24;58.66
65995;HTU21D;52764;51.036;5.852;2022-11-11T14:28:21;16.76;58.60
65995;HTU21D;52764;51.036;5.852;2022-11-11T14:33:58;16.70;58.78
65995;HTU21D;52764;51.036;5.852;2022-11-11T14:36:56;16.69;59.16
65995;HTU21D;52764;51.036;5.852;2022-11-11T14:39:51;16.67;58.50
65995;HTU21D;52764;51.036;5.852;2022-11-11T14:51:52;16.96;59.44
65995;HTU21D;52764;51.036;5.852;2022-11-11T14:54:50;16.62;63.27
65995;HTU21D;52764;51.036;5.852;2022-11-11T14:57:40;16.59;60.22
65995;HTU21D;52764;51.036;5.852;2022-11-11T15:00:28;-7.94;60.41
65995;HTU21D;52764;51.036;5.852;2022-11-11T15:03:27;13.90;60.58
65995;HTU21D;52764;51.036;5.852;2022-11-11T15:06:22;16.36;57.18
65995;HTU21D;52764;51.036;5.852;2022-11-11T15:12:53;16.21;61.70
65995;HTU21D;52764;51.036;5.852;2022-11-11T15:21:36;16.02;62.95
65995;HTU21D;52764;51.036;5.852;2022-11-11T15:24:33;15.93;63.02
65995;HTU21D;52764;51.036;5.852;2022-11-11T15:27:48;15.81;63.33
65995;HTU21D;52764;51.036;5.852;2022-11-11T15:36:58;15.55;64.14
65995;HTU21D;52764;51.036;5.852;2022-11-11T15:39:51;15.53;64.16
65995;HTU21D;52764;51.036;5.852;2022-11-11T15:42:42;15.48;64.37
65995;HTU21D;52764;51.036;5.852;2022-11-11T15:45:34;15.43;64.43
65995;HTU21D;52764;51.036;5.852;2022-11-11T15:48:43;15.38;64.53
65995;HTU21D;52764;51.036;5.852;2022-11-11T15:51:31;15.30;64.74
65995;HTU21D;52764;51.036;5.852;2022-11-11T15:54:20;15.23;65.05
65995;HTU21D;52764;51.036;5.852;2022-11-11T16:00:41;14.99;65.49
65995;HTU21D;52764;51.036;5.852;2022-11-11T16:03:32;14.78;65.96
65995;HTU21D;52764;51.036;5.852;2022-11-11T16:06:17;14.75;66.24
65995;HTU21D;52764;51.036;5.852;2022-11-11T16:09:03;14.37;61.13
65995;HTU21D;52764;51.036;5.852;2022-11-11T16:11:49;14.52;66.94
65995;HTU21D;52764;51.036;5.852;2022-11-11T16:14:42;14.37;67.61
65995;HTU21D;52764;51.036;5.852;2022-11-11T16:17:34;14.29;67.54
65995;HTU21D;52764;51.036;5.852;2022-11-11T16:21:00;14.13;68.53
65995;HTU21D;52764;51.036;5.852;2022-11-11T16:23:38;14.56;68.97
65995;HTU21D;52764;51.036;5.852;2022-11-11T16:26:24;14.28;69.25
65995;HTU21D;52764;51.036;5.852;2022-11-11T16:29:14;13.93;69.68
65995;HTU21D;52764;51.036;5.852;2022-11-11T16:31:59;8.62;70.03
65995;HTU21D;52764;51.036;5.852;2022-11-11T16:34:43;13.73;70.51
65995;HTU21D;52764;51.036;5.852;2022-11-11T16:37:29;13.66;70.85
65995;HTU21D;52764;51.036;5.852;2022-11-11T16:43:22;13.55;71.30
65995;HTU21D;52764;51.036;5.852;2022-11-11T16:46:11;13.53;71.23
65995;HTU21D;52764;51.036;5.852;2022-11-11T16:48:58;13.52;71.26
65995;HTU21D;52764;51.036;5.852;2022-11-11T16:51:46;13.51;71.35
65995;HTU21D;52764;51.036;5.852;2022-11-11T16:54:37;13.52;71.18
65995;HTU21D;52764;51.036;5.852;2022-11-11T16:57:27;13.53;71.06
65995;HTU21D;52764;51.036;5.852;2022-11-11T17:00:19;13.53;71.00
65995;HTU21D;52764;51.036;5.852;2022-11-11T17:03:20;13.49;70.35
65995;HTU21D;52764;51.036;5.852;2022-11-11T17:06:07;13.39;70.29
65995;HTU21D;52764;51.036;5.852;2022-11-11T17:08:52;-14.44;68.96
65995;HTU21D;52764;51.036;5.852;2022-11-11T17:14:25;13.01;71.61
65995;HTU21D;52764;51.036;5.852;2022-11-11T17:17:10;12.91;72.66
65995;HTU21D;52764;51.036;5.852;2022-11-11T17:19:56;12.91;71.93
65995;HTU21D;52764;51.036;5.852;2022-11-11T17:22:52;12.88;71.69
65995;HTU21D;52764;51.036;5.852;2022-11-11T17:25:37;12.90;71.49
65995;HTU21D;52764;51.036;5.852;2022-11-11T17:28:22;12.95;71.17
65995;HTU21D;52764;51.036;5.852;2022-11-11T17:31:09;12.91;71.37
65995;HTU21D;52764;51.036;5.852;2022-11-11T17:33:54;12.92;71.10
65995;HTU21D;52764;51.036;5.852;2022-11-11T17:36:38;12.85;71.00
65995;HTU21D;52764;51.036;5.852;2022-11-11T17:39:22;12.76;71.19
65995;HTU21D;52764;51.036;5.852;2022-11-11T17:42:07;12.72;71.26
65995;HTU21D;52764;51.036;5.852;2022-11-11T17:44:51;12.65;71.07
65995;HTU21D;52764;51.036;5.852;2022-11-11T17:47:35;12.62;70.99
65995;HTU21D;52764;51.036;5.852;2022-11-11T17:50:19;12.56;70.93
65995;HTU21D;52764;51.036;5.852;2022-11-11T17:53:07;12.50;71.65
65995;HTU21D;52764;51.036;5.852;2022-11-11T17:55:52;12.47;71.61
65995;HTU21D;52764;51.036;5.852;2022-11-11T17:58:36;12.42;71.69
65995;HTU21D;52764;51.036;5.852;2022-11-11T18:01:20;12.38;71.75
65995;HTU21D;52764;51.036;5.852;2022-11-11T18:04:04;12.34;71.95
65995;HTU21D;52764;51.036;5.852;2022-11-11T18:06:49;12.31;72.25
65995;HTU21D;52764;51.036;5.852;2022-11-11T18:09:33;12.23;72.42
65995;HTU21D;52764;51.036;5.852;2022-11-11T18:12:18;12.17;72.49
65995;HTU21D;52764;51.036;5.852;2022-11-11T18:15:04;12.15;72.48
65995;HTU21D;52764;51.036;5.852;2022-11-11T18:17:49;5.27;72.42
65995;HTU21D;52764;51.036;5.852;2022-11-11T18:20:33;12.13;72.49
65995;HTU21D;52764;51.036;5.852;2022-11-11T18:23:17;12.13;72.56
65995;HTU21D;52764;51.036;5.852;2022-11-11T18:26:01;12.14;72.31
65995;HTU21D;52764;51.036;5.852;2022-11-11T18:28:46;12.14;72.18
65995;HTU21D;52764;51.036;5.852;2022-11-11T18:31:30;12.04;72.64
65995;HTU21D;52764;51.036;5.852;2022-11-11T18:34:14;12.00;72.80
65995;HTU21D;52764;51.036;5.852;2022-11-11T18:36:59;12.02;71.96
65995;HTU21D;52764;51.036;5.852;2022-11-11T18:39:43;12.00;71.48
65995;HTU21D;52764;51.036;5.852;2022-11-11T18:42:27;11.96;71.31
65995;HTU21D;52764;51.036;5.852;2022-11-11T18:45:11;11.89;71.40
65995;HTU21D;52764;51.036;5.852;2022-11-11T18:47:55;-17.40;71.19
65995;HTU21D;52764;51.036;5.852;2022-11-11T18:50:39;0.51;72.27
65995;HTU21D;52764;51.036;5.852;2022-11-11T18:53:23;11.56;72.95
65995;HTU21D;52764;51.036;5.852;2022-11-11T18:56:13;11.55;73.02
65995;HTU21D;52764;51.036;5.852;2022-11-11T18:58:59;-17.96;73.16
65995;HTU21D;52764;51.036;5.852;2022-11-11T19:01:43;11.51;73.45
65995;HTU21D;52764;51.036;5.852;2022-11-11T19:04:28;11.46;73.68
65995;HTU21D;52764;51.036;5.852;2022-11-11T19:07:12;11.45;73.88
65995;HTU21D;52764;51.036;5.852;2022-11-11T19:09:56;11.30;74.02
65995;HTU21D;52764;51.036;5.852;2022-11-11T19:12:41;11.26;74.18
65995;HTU21D;52764;51.036;5.852;2022-11-11T19:15:25;11.23;74.19
65995;HTU21D;52764;51.036;5.852;2022-11-11T19:18:09;11.17;74.13
65995;HTU21D;52764;51.036;5.852;2022-11-11T19:20:53;11.16;76.08
65995;HTU21D;52764;51.036;5.852;2022-11-11T19:23:37;11.24;73.90
65995;HTU21D;52764;51.036;5.852;2022-11-11T19:26:24;11.26;73.62
65995;HTU21D;52764;51.036;5.852;2022-11-11T19:29:09;11.29;73.28
65995;HTU21D;52764;51.036;5.852;2022-11-11T19:31:55;11.23;73.40
65995;HTU21D;52764;51.036;5.852;2022-11-11T19:34:39;11.20;73.26